Friday, October 19, 2018, 11:50 AM GMT
Back to Local

CXCH, Cheticamp, N. S.

Location: , , Canada Lat: 46.65
Local Time: 11:50 AM GMT (11:50 GMT) Lon: -60.95
Time Zone: GMT Elev: 144 ft

Show me the last for .
Show Coded

Time T Td Feel RH Dir Speed Gust Alt SLP Vis Weather Sky Remarks
2018-10-19 11:00 36 24 - 62 - - - - - 0 None
2018-10-19 10:00 36 25 - 63 - - - - - 0 1-hr Precip Total: 0.03"
2018-10-19 09:00 36 25 - 64 - - - - - 0 None
2018-10-19 08:00 36 27 - 67 - - - - - 0 None
2018-10-19 07:00 37 25 - 61 - - - - - 0 None
2018-10-19 06:00 37 26 - 61 - - - - - 0 None
2018-10-19 05:00 38 26 - 61 - - - - - 0 None
2018-10-19 04:00 38 28 - 65 - - - - - 0 None
2018-10-19 03:00 38 29 - 67 - - - - - 0 None
2018-10-19 02:00 39 30 - 69 - - - - - 0 None
2018-10-19 01:00 38 33 - 83 - - - - - 0 None
2018-10-19 00:00 38 34 - 83 - - - - - 0 None
2018-10-18 23:00 38 35 - 88 - - - - - 0 None
2018-10-18 22:00 39 34 - 83 - - - - - 0 1-hr Precip Total: 0.05"
2018-10-18 21:00 37 35 - 92 - - - - - 0 1-hr Precip Total: 0.09"
2018-10-18 20:00 37 36 - 94 - - - - - 0 1-hr Precip Total: 0.12"
2018-10-18 19:00 35 33 - 94 - - - - - 0 1-hr Precip Total: 0.07"
2018-10-18 18:00 38 35 - 87 - - - - - 0 1-hr Precip Total: 0.03"
2018-10-18 17:00 39 35 - 85 - - - - - 0 None
2018-10-18 16:00 41 33 - 73 - - - - - 0 None
2018-10-18 15:00 40 35 - 82 - - - - - 0 1-hr Precip Total: 0.05"
2018-10-18 14:00 37 35 - 93 - - - - - 0 None
2018-10-18 13:00 42 35 - 75 - - - - - 0 None
2018-10-18 12:00 42 35 - 76 - - - - - 0 1-hr Precip Total: 0.05"

Support USWX by starting your Amazon purchase here.